sensor_id;sensor_type;location;lat;lon;timestamp;P1;durP1;ratioP1;P2;durP2;ratioP2
22973;SDS011;11653;50.848;4.584;2022-07-23T00:00:59;19.07;;;14.30;;
22973;SDS011;11653;50.848;4.584;2022-07-23T00:03:25;23.43;;;14.00;;
22973;SDS011;11653;50.848;4.584;2022-07-23T00:05:51;19.63;;;13.60;;
22973;SDS011;11653;50.848;4.584;2022-07-23T00:08:17;18.67;;;13.07;;
22973;SDS011;11653;50.848;4.584;2022-07-23T00:10:43;17.63;;;13.70;;
22973;SDS011;11653;50.848;4.584;2022-07-23T00:13:09;19.67;;;14.47;;
22973;SDS011;11653;50.848;4.584;2022-07-23T00:15:35;20.60;;;14.73;;
22973;SDS011;11653;50.848;4.584;2022-07-23T00:18:01;22.57;;;14.37;;
22973;SDS011;11653;50.848;4.584;2022-07-23T00:20:27;23.20;;;14.10;;
22973;SDS011;11653;50.848;4.584;2022-07-23T00:22:54;17.53;;;13.03;;
22973;SDS011;11653;50.848;4.584;2022-07-23T00:25:20;21.87;;;14.00;;
22973;SDS011;11653;50.848;4.584;2022-07-23T00:27:47;31.77;;;15.03;;
22973;SDS011;11653;50.848;4.584;2022-07-23T00:30:13;25.47;;;14.83;;
22973;SDS011;11653;50.848;4.584;2022-07-23T00:32:46;23.30;;;14.17;;
22973;SDS011;11653;50.848;4.584;2022-07-23T00:35:12;24.87;;;14.87;;
22973;SDS011;11653;50.848;4.584;2022-07-23T00:37:38;26.73;;;14.80;;
22973;SDS011;11653;50.848;4.584;2022-07-23T00:40:04;22.80;;;14.53;;
22973;SDS011;11653;50.848;4.584;2022-07-23T00:42:31;23.33;;;14.50;;
22973;SDS011;11653;50.848;4.584;2022-07-23T00:44:57;22.60;;;14.50;;
22973;SDS011;11653;50.848;4.584;2022-07-23T00:47:23;24.50;;;14.37;;
22973;SDS011;11653;50.848;4.584;2022-07-23T00:49:48;23.43;;;14.97;;
22973;SDS011;11653;50.848;4.584;2022-07-23T00:52:14;22.53;;;14.07;;
22973;SDS011;11653;50.848;4.584;2022-07-23T00:54:40;21.40;;;13.77;;
22973;SDS011;11653;50.848;4.584;2022-07-23T00:57:06;19.43;;;13.60;;
22973;SDS011;11653;50.848;4.584;2022-07-23T00:59:33;19.43;;;13.80;;
22973;SDS011;11653;50.848;4.584;2022-07-23T01:01:59;20.97;;;14.00;;
22973;SDS011;11653;50.848;4.584;2022-07-23T01:04:24;19.33;;;13.23;;
22973;SDS011;11653;50.848;4.584;2022-07-23T01:06:50;24.53;;;12.80;;
22973;SDS011;11653;50.848;4.584;2022-07-23T01:09:16;19.03;;;12.40;;
22973;SDS011;11653;50.848;4.584;2022-07-23T01:11:42;18.60;;;13.60;;
22973;SDS011;11653;50.848;4.584;2022-07-23T01:14:09;16.60;;;12.77;;
22973;SDS011;11653;50.848;4.584;2022-07-23T01:16:34;19.00;;;14.60;;
22973;SDS011;11653;50.848;4.584;2022-07-23T01:19:00;24.53;;;15.00;;
22973;SDS011;11653;50.848;4.584;2022-07-23T01:21:26;23.30;;;13.40;;
22973;SDS011;11653;50.848;4.584;2022-07-23T01:23:52;23.17;;;13.20;;
22973;SDS011;11653;50.848;4.584;2022-07-23T01:26:17;27.53;;;14.53;;
22973;SDS011;11653;50.848;4.584;2022-07-23T01:28:43;22.87;;;13.43;;
22973;SDS011;11653;50.848;4.584;2022-07-23T01:31:09;19.27;;;12.57;;
22973;SDS011;11653;50.848;4.584;2022-07-23T01:33:34;18.27;;;11.93;;
22973;SDS011;11653;50.848;4.584;2022-07-23T01:36:00;15.63;;;11.33;;
22973;SDS011;11653;50.848;4.584;2022-07-23T01:38:26;16.57;;;11.73;;
22973;SDS011;11653;50.848;4.584;2022-07-23T01:40:51;17.03;;;11.60;;
22973;SDS011;11653;50.848;4.584;2022-07-23T01:43:17;16.27;;;11.60;;
22973;SDS011;11653;50.848;4.584;2022-07-23T01:45:42;16.33;;;11.37;;
22973;SDS011;11653;50.848;4.584;2022-07-23T01:48:09;23.90;;;13.67;;
22973;SDS011;11653;50.848;4.584;2022-07-23T01:50:35;18.60;;;12.50;;
22973;SDS011;11653;50.848;4.584;2022-07-23T01:53:00;19.83;;;12.93;;
22973;SDS011;11653;50.848;4.584;2022-07-23T01:55:26;19.93;;;12.47;;
22973;SDS011;11653;50.848;4.584;2022-07-23T01:57:51;18.70;;;13.20;;
22973;SDS011;11653;50.848;4.584;2022-07-23T02:00:17;26.57;;;15.37;;
22973;SDS011;11653;50.848;4.584;2022-07-23T02:02:43;27.93;;;14.80;;
22973;SDS011;11653;50.848;4.584;2022-07-23T02:05:09;22.07;;;13.80;;
22973;SDS011;11653;50.848;4.584;2022-07-23T02:07:34;30.37;;;15.23;;
22973;SDS011;11653;50.848;4.584;2022-07-23T02:10:00;22.23;;;15.27;;
22973;SDS011;11653;50.848;4.584;2022-07-23T02:12:26;20.00;;;14.67;;
22973;SDS011;11653;50.848;4.584;2022-07-23T02:14:51;24.73;;;16.30;;
22973;SDS011;11653;50.848;4.584;2022-07-23T02:17:17;26.33;;;16.93;;
22973;SDS011;11653;50.848;4.584;2022-07-23T02:19:43;24.80;;;15.73;;
22973;SDS011;11653;50.848;4.584;2022-07-23T02:22:08;28.13;;;16.03;;
22973;SDS011;11653;50.848;4.584;2022-07-23T02:24:34;25.33;;;16.27;;
22973;SDS011;11653;50.848;4.584;2022-07-23T02:27:00;36.60;;;17.40;;
22973;SDS011;11653;50.848;4.584;2022-07-23T02:29:25;24.67;;;16.87;;
22973;SDS011;11653;50.848;4.584;2022-07-23T02:31:51;33.93;;;18.40;;
22973;SDS011;11653;50.848;4.584;2022-07-23T02:34:17;30.23;;;17.93;;
22973;SDS011;11653;50.848;4.584;2022-07-23T02:36:42;27.23;;;18.00;;
22973;SDS011;11653;50.848;4.584;2022-07-23T02:39:08;33.03;;;18.13;;
22973;SDS011;11653;50.848;4.584;2022-07-23T02:41:34;32.90;;;20.57;;
22973;SDS011;11653;50.848;4.584;2022-07-23T02:43:59;25.93;;;18.33;;
22973;SDS011;11653;50.848;4.584;2022-07-23T02:46:25;34.10;;;18.97;;
22973;SDS011;11653;50.848;4.584;2022-07-23T02:48:51;24.27;;;17.23;;
22973;SDS011;11653;50.848;4.584;2022-07-23T02:51:16;28.53;;;18.17;;
22973;SDS011;11653;50.848;4.584;2022-07-23T02:53:42;28.13;;;17.73;;
22973;SDS011;11653;50.848;4.584;2022-07-23T02:56:08;27.80;;;19.07;;
22973;SDS011;11653;50.848;4.584;2022-07-23T02:58:34;30.90;;;16.87;;
22973;SDS011;11653;50.848;4.584;2022-07-23T03:01:00;22.93;;;16.90;;
22973;SDS011;11653;50.848;4.584;2022-07-23T03:03:25;26.27;;;16.87;;
22973;SDS011;11653;50.848;4.584;2022-07-23T03:05:51;24.60;;;16.27;;
22973;SDS011;11653;50.848;4.584;2022-07-23T03:08:17;29.27;;;18.60;;
22973;SDS011;11653;50.848;4.584;2022-07-23T03:10:42;32.30;;;18.53;;
22973;SDS011;11653;50.848;4.584;2022-07-23T03:13:08;26.07;;;16.10;;
22973;SDS011;11653;50.848;4.584;2022-07-23T03:15:34;25.73;;;16.73;;
22973;SDS011;11653;50.848;4.584;2022-07-23T03:17:59;31.87;;;17.53;;
22973;SDS011;11653;50.848;4.584;2022-07-23T03:20:25;34.03;;;18.80;;
22973;SDS011;11653;50.848;4.584;2022-07-23T03:22:50;30.77;;;17.63;;
22973;SDS011;11653;50.848;4.584;2022-07-23T03:25:16;28.50;;;18.73;;
22973;SDS011;11653;50.848;4.584;2022-07-23T03:27:42;31.20;;;19.37;;
22973;SDS011;11653;50.848;4.584;2022-07-23T03:30:07;31.17;;;17.60;;
22973;SDS011;11653;50.848;4.584;2022-07-23T03:32:33;37.63;;;18.13;;
22973;SDS011;11653;50.848;4.584;2022-07-23T03:34:59;39.23;;;20.77;;
22973;SDS011;11653;50.848;4.584;2022-07-23T03:37:25;29.90;;;18.50;;
22973;SDS011;11653;50.848;4.584;2022-07-23T03:39:50;31.77;;;18.17;;
22973;SDS011;11653;50.848;4.584;2022-07-23T03:42:16;30.83;;;17.47;;
22973;SDS011;11653;50.848;4.584;2022-07-23T03:44:42;33.77;;;19.67;;
22973;SDS011;11653;50.848;4.584;2022-07-23T03:47:07;30.23;;;18.23;;
22973;SDS011;11653;50.848;4.584;2022-07-23T03:49:33;34.83;;;18.77;;
22973;SDS011;11653;50.848;4.584;2022-07-23T03:51:59;35.03;;;18.77;;
22973;SDS011;11653;50.848;4.584;2022-07-23T03:54:26;31.73;;;19.50;;
22973;SDS011;11653;50.848;4.584;2022-07-23T03:56:51;31.43;;;18.63;;
22973;SDS011;11653;50.848;4.584;2022-07-23T03:59:17;29.67;;;17.57;;
22973;SDS011;11653;50.848;4.584;2022-07-23T04:01:43;31.90;;;17.40;;
22973;SDS011;11653;50.848;4.584;2022-07-23T04:04:08;29.53;;;17.83;;
22973;SDS011;11653;50.848;4.584;2022-07-23T04:06:35;34.67;;;17.50;;
22973;SDS011;11653;50.848;4.584;2022-07-23T04:09:01;24.23;;;14.73;;
22973;SDS011;11653;50.848;4.584;2022-07-23T04:11:27;23.70;;;15.60;;
22973;SDS011;11653;50.848;4.584;2022-07-23T04:13:53;30.93;;;17.73;;
22973;SDS011;11653;50.848;4.584;2022-07-23T04:16:18;28.53;;;17.53;;
22973;SDS011;11653;50.848;4.584;2022-07-23T04:18:44;27.00;;;16.23;;
22973;SDS011;11653;50.848;4.584;2022-07-23T04:21:10;21.67;;;14.27;;
22973;SDS011;11653;50.848;4.584;2022-07-23T04:23:35;24.17;;;15.73;;
22973;SDS011;11653;50.848;4.584;2022-07-23T04:26:01;31.83;;;16.83;;
22973;SDS011;11653;50.848;4.584;2022-07-23T04:28:27;28.60;;;17.30;;
22973;SDS011;11653;50.848;4.584;2022-07-23T04:30:52;28.90;;;17.40;;
22973;SDS011;11653;50.848;4.584;2022-07-23T04:33:20;33.80;;;18.53;;
22973;SDS011;11653;50.848;4.584;2022-07-23T04:35:46;39.23;;;18.83;;
22973;SDS011;11653;50.848;4.584;2022-07-23T04:38:12;33.47;;;17.23;;
22973;SDS011;11653;50.848;4.584;2022-07-23T04:40:37;26.83;;;17.93;;
22973;SDS011;11653;50.848;4.584;2022-07-23T04:43:03;29.70;;;16.50;;
22973;SDS011;11653;50.848;4.584;2022-07-23T04:45:30;30.63;;;17.50;;
22973;SDS011;11653;50.848;4.584;2022-07-23T04:47:55;29.40;;;17.03;;
22973;SDS011;11653;50.848;4.584;2022-07-23T04:50:22;32.67;;;17.53;;
22973;SDS011;11653;50.848;4.584;2022-07-23T04:52:48;33.13;;;18.83;;
22973;SDS011;11653;50.848;4.584;2022-07-23T04:55:14;32.23;;;19.00;;
22973;SDS011;11653;50.848;4.584;2022-07-23T04:57:40;42.63;;;20.50;;
22973;SDS011;11653;50.848;4.584;2022-07-23T05:00:06;44.87;;;20.17;;
22973;SDS011;11653;50.848;4.584;2022-07-23T05:02:32;39.57;;;20.10;;
22973;SDS011;11653;50.848;4.584;2022-07-23T05:04:58;32.37;;;17.13;;
22973;SDS011;11653;50.848;4.584;2022-07-23T05:07:24;32.13;;;18.10;;
22973;SDS011;11653;50.848;4.584;2022-07-23T05:09:49;30.90;;;16.70;;
22973;SDS011;11653;50.848;4.584;2022-07-23T05:12:15;24.17;;;15.30;;
22973;SDS011;11653;50.848;4.584;2022-07-23T05:14:41;30.83;;;15.40;;
22973;SDS011;11653;50.848;4.584;2022-07-23T05:17:07;21.17;;;14.07;;
22973;SDS011;11653;50.848;4.584;2022-07-23T05:19:33;27.03;;;12.77;;
22973;SDS011;11653;50.848;4.584;2022-07-23T05:21:59;21.43;;;13.20;;
22973;SDS011;11653;50.848;4.584;2022-07-23T05:24:25;21.13;;;12.30;;
22973;SDS011;11653;50.848;4.584;2022-07-23T05:26:51;29.53;;;12.37;;
22973;SDS011;11653;50.848;4.584;2022-07-23T05:29:16;23.80;;;12.83;;
22973;SDS011;11653;50.848;4.584;2022-07-23T05:31:42;26.90;;;12.83;;
22973;SDS011;11653;50.848;4.584;2022-07-23T05:34:08;19.90;;;12.63;;
22973;SDS011;11653;50.848;4.584;2022-07-23T05:36:34;19.03;;;13.43;;
22973;SDS011;11653;50.848;4.584;2022-07-23T05:38:59;17.90;;;12.90;;
22973;SDS011;11653;50.848;4.584;2022-07-23T05:41:25;24.63;;;13.10;;
22973;SDS011;11653;50.848;4.584;2022-07-23T05:43:51;17.57;;;12.10;;
22973;SDS011;11653;50.848;4.584;2022-07-23T05:46:16;14.53;;;11.70;;
22973;SDS011;11653;50.848;4.584;2022-07-23T05:48:42;21.13;;;12.87;;
22973;SDS011;11653;50.848;4.584;2022-07-23T05:51:11;20.83;;;13.50;;
22973;SDS011;11653;50.848;4.584;2022-07-23T05:53:36;18.47;;;14.03;;
22973;SDS011;11653;50.848;4.584;2022-07-23T05:56:03;23.17;;;14.17;;
22973;SDS011;11653;50.848;4.584;2022-07-23T05:58:29;21.53;;;14.43;;
22973;SDS011;11653;50.848;4.584;2022-07-23T06:00:54;21.67;;;15.40;;
22973;SDS011;11653;50.848;4.584;2022-07-23T06:03:20;23.03;;;15.30;;
22973;SDS011;11653;50.848;4.584;2022-07-23T06:05:46;20.33;;;15.33;;
22973;SDS011;11653;50.848;4.584;2022-07-23T06:08:11;22.13;;;15.40;;
22973;SDS011;11653;50.848;4.584;2022-07-23T06:10:37;21.53;;;14.73;;
22973;SDS011;11653;50.848;4.584;2022-07-23T06:13:02;21.90;;;14.67;;
22973;SDS011;11653;50.848;4.584;2022-07-23T06:15:28;19.33;;;15.37;;
22973;SDS011;11653;50.848;4.584;2022-07-23T06:17:55;18.93;;;13.90;;
22973;SDS011;11653;50.848;4.584;2022-07-23T06:20:21;18.10;;;14.17;;
22973;SDS011;11653;50.848;4.584;2022-07-23T06:22:46;18.80;;;14.00;;
22973;SDS011;11653;50.848;4.584;2022-07-23T06:25:12;17.63;;;13.83;;
22973;SDS011;11653;50.848;4.584;2022-07-23T06:27:38;16.30;;;13.40;;
22973;SDS011;11653;50.848;4.584;2022-07-23T06:30:03;17.27;;;13.47;;
22973;SDS011;11653;50.848;4.584;2022-07-23T06:32:31;17.50;;;13.97;;
22973;SDS011;11653;50.848;4.584;2022-07-23T06:34:56;15.17;;;13.30;;
22973;SDS011;11653;50.848;4.584;2022-07-23T06:37:22;16.37;;;12.67;;
22973;SDS011;11653;50.848;4.584;2022-07-23T06:39:48;13.93;;;11.90;;
22973;SDS011;11653;50.848;4.584;2022-07-23T06:42:13;16.43;;;12.13;;
22973;SDS011;11653;50.848;4.584;2022-07-23T06:44:40;14.17;;;12.13;;
22973;SDS011;11653;50.848;4.584;2022-07-23T06:47:05;14.55;;;11.95;;
22973;SDS011;11653;50.848;4.584;2022-07-23T06:49:31;17.15;;;11.60;;
22973;SDS011;11653;50.848;4.584;2022-07-23T06:51:57;13.45;;;11.77;;
22973;SDS011;11653;50.848;4.584;2022-07-23T06:54:22;12.25;;;11.00;;
22973;SDS011;11653;50.848;4.584;2022-07-23T06:56:48;16.98;;;11.05;;
22973;SDS011;11653;50.848;4.584;2022-07-23T06:59:14;14.23;;;10.32;;
22973;SDS011;11653;50.848;4.584;2022-07-23T07:01:39;13.02;;;9.65;;
22973;SDS011;11653;50.848;4.584;2022-07-23T07:04:05;13.77;;;9.75;;
22973;SDS011;11653;50.848;4.584;2022-07-23T07:06:31;13.85;;;10.25;;
22973;SDS011;11653;50.848;4.584;2022-07-23T07:08:56;11.70;;;10.48;;
22973;SDS011;11653;50.848;4.584;2022-07-23T07:11:22;15.93;;;10.55;;
22973;SDS011;11653;50.848;4.584;2022-07-23T07:13:50;13.50;;;10.73;;
22973;SDS011;11653;50.848;4.584;2022-07-23T07:16:16;13.98;;;10.65;;
22973;SDS011;11653;50.848;4.584;2022-07-23T07:18:41;11.35;;;10.02;;
22973;SDS011;11653;50.848;4.584;2022-07-23T07:21:07;11.25;;;9.23;;
22973;SDS011;11653;50.848;4.584;2022-07-23T07:23:33;13.90;;;8.93;;
22973;SDS011;11653;50.848;4.584;2022-07-23T07:25:59;12.95;;;9.43;;
22973;SDS011;11653;50.848;4.584;2022-07-23T07:28:24;11.55;;;9.88;;
22973;SDS011;11653;50.848;4.584;2022-07-23T07:30:50;11.20;;;9.13;;
22973;SDS011;11653;50.848;4.584;2022-07-23T07:33:16;13.05;;;9.60;;
22973;SDS011;11653;50.848;4.584;2022-07-23T07:35:42;11.35;;;9.00;;
22973;SDS011;11653;50.848;4.584;2022-07-23T07:38:07;11.50;;;9.02;;
22973;SDS011;11653;50.848;4.584;2022-07-23T07:40:33;12.55;;;10.25;;
22973;SDS011;11653;50.848;4.584;2022-07-23T07:42:59;11.18;;;8.65;;
22973;SDS011;11653;50.848;4.584;2022-07-23T07:45:25;11.65;;;9.52;;
22973;SDS011;11653;50.848;4.584;2022-07-23T07:47:51;12.55;;;9.55;;
22973;SDS011;11653;50.848;4.584;2022-07-23T07:50:17;10.40;;;8.88;;
22973;SDS011;11653;50.848;4.584;2022-07-23T07:52:44;14.73;;;9.27;;
22973;SDS011;11653;50.848;4.584;2022-07-23T07:55:10;12.38;;;9.18;;
22973;SDS011;11653;50.848;4.584;2022-07-23T07:57:36;11.35;;;8.27;;
22973;SDS011;11653;50.848;4.584;2022-07-23T08:00:03;11.30;;;8.88;;
22973;SDS011;11653;50.848;4.584;2022-07-23T08:02:39;10.80;;;8.57;;
22973;SDS011;11653;50.848;4.584;2022-07-23T08:05:05;9.80;;;8.27;;
22973;SDS011;11653;50.848;4.584;2022-07-23T08:07:31;11.88;;;8.60;;
22973;SDS011;11653;50.848;4.584;2022-07-23T08:09:56;10.38;;;8.93;;
22973;SDS011;11653;50.848;4.584;2022-07-23T08:12:22;11.18;;;9.20;;
22973;SDS011;11653;50.848;4.584;2022-07-23T08:14:48;10.68;;;8.85;;
22973;SDS011;11653;50.848;4.584;2022-07-23T08:17:13;11.43;;;8.60;;
22973;SDS011;11653;50.848;4.584;2022-07-23T08:19:39;10.93;;;7.38;;
22973;SDS011;11653;50.848;4.584;2022-07-23T08:22:05;8.48;;;6.93;;
22973;SDS011;11653;50.848;4.584;2022-07-23T08:24:30;10.98;;;8.15;;
22973;SDS011;11653;50.848;4.584;2022-07-23T08:26:56;9.55;;;8.13;;
22973;SDS011;11653;50.848;4.584;2022-07-23T08:29:21;8.88;;;7.97;;
22973;SDS011;11653;50.848;4.584;2022-07-23T08:31:47;12.98;;;8.82;;
22973;SDS011;11653;50.848;4.584;2022-07-23T08:34:13;12.20;;;8.60;;
22973;SDS011;11653;50.848;4.584;2022-07-23T08:36:38;9.30;;;7.43;;
22973;SDS011;11653;50.848;4.584;2022-07-23T08:39:04;9.93;;;8.35;;
22973;SDS011;11653;50.848;4.584;2022-07-23T08:41:29;14.05;;;9.10;;
22973;SDS011;11653;50.848;4.584;2022-07-23T08:43:55;10.98;;;8.18;;
22973;SDS011;11653;50.848;4.584;2022-07-23T08:46:21;11.35;;;8.68;;
22973;SDS011;11653;50.848;4.584;2022-07-23T08:48:48;10.80;;;8.30;;
22973;SDS011;11653;50.848;4.584;2022-07-23T08:51:15;10.02;;;8.77;;
22973;SDS011;11653;50.848;4.584;2022-07-23T08:53:41;10.77;;;8.50;;
22973;SDS011;11653;50.848;4.584;2022-07-23T08:56:07;10.20;;;8.60;;
22973;SDS011;11653;50.848;4.584;2022-07-23T08:58:34;10.57;;;8.38;;
22973;SDS011;11653;50.848;4.584;2022-07-23T09:01:00;10.07;;;8.15;;
22973;SDS011;11653;50.848;4.584;2022-07-23T09:03:27;9.77;;;7.90;;
22973;SDS011;11653;50.848;4.584;2022-07-23T09:05:54;9.65;;;8.20;;
22973;SDS011;11653;50.848;4.584;2022-07-23T09:08:25;11.30;;;7.85;;
22973;SDS011;11653;50.848;4.584;2022-07-23T09:11:11;8.93;;;7.88;;
22973;SDS011;11653;50.848;4.584;2022-07-23T09:13:48;10.82;;;7.50;;
22973;SDS011;11653;50.848;4.584;2022-07-23T09:16:17;11.52;;;7.50;;
22973;SDS011;11653;50.848;4.584;2022-07-23T09:18:50;10.93;;;8.73;;
22973;SDS011;11653;50.848;4.584;2022-07-23T09:21:34;10.20;;;6.72;;
22973;SDS011;11653;50.848;4.584;2022-07-23T09:24:02;10.57;;;7.07;;
22973;SDS011;11653;50.848;4.584;2022-07-23T09:34:31;8.75;;;6.05;;
22973;SDS011;11653;50.848;4.584;2022-07-23T09:37:13;7.90;;;5.85;;
22973;SDS011;11653;50.848;4.584;2022-07-23T09:39:43;8.77;;;6.38;;
22973;SDS011;11653;50.848;4.584;2022-07-23T09:42:13;8.55;;;7.18;;
22973;SDS011;11653;50.848;4.584;2022-07-23T09:44:58;9.90;;;6.60;;
22973;SDS011;11653;50.848;4.584;2022-07-23T09:47:26;7.63;;;6.35;;
22973;SDS011;11653;50.848;4.584;2022-07-23T09:50:01;9.02;;;5.70;;
22973;SDS011;11653;50.848;4.584;2022-07-23T09:52:35;6.75;;;5.70;;
22973;SDS011;11653;50.848;4.584;2022-07-23T09:55:07;7.50;;;4.85;;
22973;SDS011;11653;50.848;4.584;2022-07-23T09:57:33;6.75;;;4.93;;
22973;SDS011;11653;50.848;4.584;2022-07-23T10:00:06;6.68;;;4.40;;
22973;SDS011;11653;50.848;4.584;2022-07-23T10:02:35;10.77;;;5.60;;
22973;SDS011;11653;50.848;4.584;2022-07-23T10:05:02;6.32;;;5.72;;
22973;SDS011;11653;50.848;4.584;2022-07-23T10:07:28;9.23;;;6.18;;
22973;SDS011;11653;50.848;4.584;2022-07-23T10:09:59;7.32;;;5.80;;
22973;SDS011;11653;50.848;4.584;2022-07-23T10:12:26;6.60;;;5.28;;
22973;SDS011;11653;50.848;4.584;2022-07-23T10:15:23;6.80;;;5.63;;
22973;SDS011;11653;50.848;4.584;2022-07-23T10:17:50;6.97;;;5.50;;
22973;SDS011;11653;50.848;4.584;2022-07-23T10:20:16;6.57;;;5.32;;
22973;SDS011;11653;50.848;4.584;2022-07-23T10:22:44;7.25;;;4.50;;
22973;SDS011;11653;50.848;4.584;2022-07-23T10:30:43;11.23;;;5.70;;
22973;SDS011;11653;50.848;4.584;2022-07-23T10:33:20;8.32;;;4.72;;
22973;SDS011;11653;50.848;4.584;2022-07-23T10:36:27;6.63;;;5.38;;
22973;SDS011;11653;50.848;4.584;2022-07-23T10:38:53;7.32;;;5.55;;
22973;SDS011;11653;50.848;4.584;2022-07-23T10:41:36;7.25;;;4.85;;
22973;SDS011;11653;50.848;4.584;2022-07-23T10:46:32;5.18;;;3.90;;
22973;SDS011;11653;50.848;4.584;2022-07-23T10:54:42;3.75;;;3.25;;
22973;SDS011;11653;50.848;4.584;2022-07-23T10:57:08;3.97;;;2.90;;
22973;SDS011;11653;50.848;4.584;2022-07-23T11:02:34;2.55;;;2.20;;
22973;SDS011;11653;50.848;4.584;2022-07-23T11:05:05;2.40;;;2.00;;
22973;SDS011;11653;50.848;4.584;2022-07-23T11:07:36;3.85;;;2.28;;
22973;SDS011;11653;50.848;4.584;2022-07-23T11:10:32;7.30;;;3.30;;
22973;SDS011;11653;50.848;4.584;2022-07-23T11:14:00;5.18;;;2.50;;
22973;SDS011;11653;50.848;4.584;2022-07-23T11:24:07;4.20;;;2.70;;
22973;SDS011;11653;50.848;4.584;2022-07-23T11:34:54;6.80;;;3.17;;
22973;SDS011;11653;50.848;4.584;2022-07-23T11:37:29;7.65;;;3.80;;
22973;SDS011;11653;50.848;4.584;2022-07-23T11:40:04;5.38;;;2.63;;
22973;SDS011;11653;50.848;4.584;2022-07-23T11:42:35;3.38;;;2.50;;
22973;SDS011;11653;50.848;4.584;2022-07-23T11:45:04;5.50;;;3.28;;
22973;SDS011;11653;50.848;4.584;2022-07-23T11:47:31;3.22;;;2.50;;
22973;SDS011;11653;50.848;4.584;2022-07-23T11:49:59;3.92;;;3.00;;
22973;SDS011;11653;50.848;4.584;2022-07-23T11:52:27;4.38;;;2.65;;
22973;SDS011;11653;50.848;4.584;2022-07-23T11:54:58;3.30;;;2.15;;
22973;SDS011;11653;50.848;4.584;2022-07-23T11:57:35;2.40;;;2.00;;
22973;SDS011;11653;50.848;4.584;2022-07-23T12:00:08;3.38;;;2.25;;
22973;SDS011;11653;50.848;4.584;2022-07-23T12:03:03;3.55;;;2.60;;
22973;SDS011;11653;50.848;4.584;2022-07-23T12:05:32;3.03;;;2.33;;
22973;SDS011;11653;50.848;4.584;2022-07-23T12:08:01;4.00;;;2.55;;
22973;SDS011;11653;50.848;4.584;2022-07-23T12:13:08;3.70;;;2.50;;
22973;SDS011;11653;50.848;4.584;2022-07-23T12:15:40;4.80;;;2.55;;
22973;SDS011;11653;50.848;4.584;2022-07-23T12:18:17;3.58;;;2.35;;
22973;SDS011;11653;50.848;4.584;2022-07-23T12:20:48;4.97;;;2.30;;
22973;SDS011;11653;50.848;4.584;2022-07-23T12:23:16;3.40;;;2.00;;
22973;SDS011;11653;50.848;4.584;2022-07-23T12:25:44;4.15;;;2.10;;
22973;SDS011;11653;50.848;4.584;2022-07-23T12:28:15;2.35;;;2.13;;
22973;SDS011;11653;50.848;4.584;2022-07-23T12:30:52;3.25;;;2.10;;
22973;SDS011;11653;50.848;4.584;2022-07-23T12:33:26;2.88;;;2.10;;
22973;SDS011;11653;50.848;4.584;2022-07-23T12:35:57;3.15;;;2.40;;
22973;SDS011;11653;50.848;4.584;2022-07-23T12:38:25;3.50;;;2.08;;
22973;SDS011;11653;50.848;4.584;2022-07-23T12:40:53;3.80;;;2.38;;
22973;SDS011;11653;50.848;4.584;2022-07-23T12:48:26;4.43;;;2.63;;
22973;SDS011;11653;50.848;4.584;2022-07-23T12:53:36;6.25;;;2.85;;
22973;SDS011;11653;50.848;4.584;2022-07-23T12:56:10;3.97;;;2.67;;
22973;SDS011;11653;50.848;4.584;2022-07-23T13:01:08;4.70;;;2.65;;
22973;SDS011;11653;50.848;4.584;2022-07-23T13:03:38;6.78;;;2.97;;
22973;SDS011;11653;50.848;4.584;2022-07-23T13:06:06;6.03;;;2.90;;
22973;SDS011;11653;50.848;4.584;2022-07-23T13:08:36;4.80;;;2.90;;
22973;SDS011;11653;50.848;4.584;2022-07-23T13:11:04;3.97;;;3.22;;
22973;SDS011;11653;50.848;4.584;2022-07-23T13:13:31;5.68;;;3.33;;
22973;SDS011;11653;50.848;4.584;2022-07-23T13:15:58;4.50;;;3.15;;
22973;SDS011;11653;50.848;4.584;2022-07-23T13:18:25;6.20;;;3.40;;
22973;SDS011;11653;50.848;4.584;2022-07-23T13:20:51;5.38;;;3.20;;
22973;SDS011;11653;50.848;4.584;2022-07-23T13:23:17;3.65;;;2.90;;
22973;SDS011;11653;50.848;4.584;2022-07-23T13:25:43;4.20;;;2.95;;
22973;SDS011;11653;50.848;4.584;2022-07-23T13:28:09;5.07;;;3.33;;
22973;SDS011;11653;50.848;4.584;2022-07-23T13:30:34;4.68;;;3.20;;
22973;SDS011;11653;50.848;4.584;2022-07-23T13:33:01;4.57;;;3.67;;
22973;SDS011;11653;50.848;4.584;2022-07-23T13:35:29;5.45;;;3.00;;
22973;SDS011;11653;50.848;4.584;2022-07-23T13:37:55;3.78;;;3.03;;
22973;SDS011;11653;50.848;4.584;2022-07-23T13:40:21;5.32;;;3.25;;
22973;SDS011;11653;50.848;4.584;2022-07-23T13:42:46;4.68;;;3.17;;
22973;SDS011;11653;50.848;4.584;2022-07-23T13:45:13;3.80;;;3.22;;
22973;SDS011;11653;50.848;4.584;2022-07-23T13:47:39;5.07;;;3.10;;
22973;SDS011;11653;50.848;4.584;2022-07-23T13:50:05;5.28;;;3.33;;
22973;SDS011;11653;50.848;4.584;2022-07-23T13:52:31;4.10;;;3.47;;
22973;SDS011;11653;50.848;4.584;2022-07-23T13:54:59;4.60;;;3.72;;
22973;SDS011;11653;50.848;4.584;2022-07-23T13:57:29;4.75;;;3.63;;
22973;SDS011;11653;50.848;4.584;2022-07-23T13:59:55;5.80;;;4.10;;
22973;SDS011;11653;50.848;4.584;2022-07-23T14:02:21;7.15;;;4.30;;
22973;SDS011;11653;50.848;4.584;2022-07-23T14:04:46;4.63;;;3.63;;
22973;SDS011;11653;50.848;4.584;2022-07-23T14:07:12;4.68;;;3.90;;
22973;SDS011;11653;50.848;4.584;2022-07-23T14:09:38;9.30;;;3.97;;
22973;SDS011;11653;50.848;4.584;2022-07-23T14:12:04;4.35;;;3.60;;
22973;SDS011;11653;50.848;4.584;2022-07-23T14:14:30;5.55;;;3.20;;
22973;SDS011;11653;50.848;4.584;2022-07-23T14:16:56;5.30;;;3.78;;
22973;SDS011;11653;50.848;4.584;2022-07-23T14:19:22;3.47;;;3.08;;
22973;SDS011;11653;50.848;4.584;2022-07-23T14:21:48;5.15;;;3.92;;
22973;SDS011;11653;50.848;4.584;2022-07-23T14:24:14;7.55;;;3.70;;
22973;SDS011;11653;50.848;4.584;2022-07-23T14:26:40;4.80;;;3.60;;
22973;SDS011;11653;50.848;4.584;2022-07-23T14:29:06;5.53;;;3.70;;
22973;SDS011;11653;50.848;4.584;2022-07-23T14:31:32;5.93;;;3.55;;
22973;SDS011;11653;50.848;4.584;2022-07-23T14:33:58;6.47;;;3.70;;
22973;SDS011;11653;50.848;4.584;2022-07-23T14:36:24;5.75;;;4.03;;
22973;SDS011;11653;50.848;4.584;2022-07-23T14:38:50;5.95;;;4.13;;
22973;SDS011;11653;50.848;4.584;2022-07-23T14:41:16;8.35;;;4.80;;
22973;SDS011;11653;50.848;4.584;2022-07-23T14:43:42;7.90;;;4.78;;
22973;SDS011;11653;50.848;4.584;2022-07-23T14:46:08;4.75;;;4.28;;
22973;SDS011;11653;50.848;4.584;2022-07-23T14:48:34;5.72;;;4.53;;
22973;SDS011;11653;50.848;4.584;2022-07-23T14:51:02;6.43;;;4.15;;
22973;SDS011;11653;50.848;4.584;2022-07-23T14:53:27;4.88;;;4.10;;
22973;SDS011;11653;50.848;4.584;2022-07-23T14:55:53;9.57;;;4.60;;
22973;SDS011;11653;50.848;4.584;2022-07-23T14:58:20;7.90;;;4.50;;
22973;SDS011;11653;50.848;4.584;2022-07-23T15:00:46;6.40;;;4.65;;
22973;SDS011;11653;50.848;4.584;2022-07-23T15:03:12;8.48;;;4.40;;
22973;SDS011;11653;50.848;4.584;2022-07-23T15:05:37;6.80;;;4.78;;
22973;SDS011;11653;50.848;4.584;2022-07-23T15:08:03;5.70;;;4.30;;
22973;SDS011;11653;50.848;4.584;2022-07-23T15:10:29;5.85;;;4.63;;
22973;SDS011;11653;50.848;4.584;2022-07-23T15:12:55;6.43;;;4.97;;
22973;SDS011;11653;50.848;4.584;2022-07-23T15:15:20;8.13;;;4.30;;
22973;SDS011;11653;50.848;4.584;2022-07-23T15:17:46;9.82;;;4.88;;
22973;SDS011;11653;50.848;4.584;2022-07-23T15:20:12;9.65;;;4.80;;
22973;SDS011;11653;50.848;4.584;2022-07-23T15:22:38;5.00;;;3.75;;
22973;SDS011;11653;50.848;4.584;2022-07-23T15:25:04;4.07;;;3.53;;
22973;SDS011;11653;50.848;4.584;2022-07-23T15:27:30;7.10;;;4.22;;